sensor_id;sensor_type;location;lat;lon;timestamp;P1;durP1;ratioP1;P2;durP2;ratioP2
35444;SDS011;21562;49.476;6.086;2023-05-07T00:02:02;4.15;;;2.40;;
35444;SDS011;21562;49.476;6.086;2023-05-07T00:04:28;5.47;;;2.20;;
35444;SDS011;21562;49.476;6.086;2023-05-07T00:07:01;3.58;;;2.17;;
35444;SDS011;21562;49.476;6.086;2023-05-07T00:09:26;5.40;;;1.95;;
35444;SDS011;21562;49.476;6.086;2023-05-07T00:11:52;8.70;;;2.30;;
35444;SDS011;21562;49.476;6.086;2023-05-07T00:14:17;3.75;;;1.90;;
35444;SDS011;21562;49.476;6.086;2023-05-07T00:16:43;3.90;;;1.63;;
35444;SDS011;21562;49.476;6.086;2023-05-07T00:19:09;3.80;;;2.05;;
35444;SDS011;21562;49.476;6.086;2023-05-07T00:21:34;3.25;;;1.77;;
35444;SDS011;21562;49.476;6.086;2023-05-07T00:24:00;7.88;;;2.13;;
35444;SDS011;21562;49.476;6.086;2023-05-07T00:26:26;2.92;;;1.80;;
35444;SDS011;21562;49.476;6.086;2023-05-07T00:28:51;3.95;;;2.00;;
35444;SDS011;21562;49.476;6.086;2023-05-07T00:31:17;3.10;;;2.00;;
35444;SDS011;21562;49.476;6.086;2023-05-07T00:33:43;3.10;;;2.00;;
35444;SDS011;21562;49.476;6.086;2023-05-07T00:36:08;6.93;;;2.25;;
35444;SDS011;21562;49.476;6.086;2023-05-07T00:38:34;6.88;;;2.20;;
35444;SDS011;21562;49.476;6.086;2023-05-07T00:41:00;7.03;;;2.10;;
35444;SDS011;21562;49.476;6.086;2023-05-07T00:43:27;5.13;;;2.00;;
35444;SDS011;21562;49.476;6.086;2023-05-07T00:45:52;4.30;;;2.30;;
35444;SDS011;21562;49.476;6.086;2023-05-07T00:48:18;6.88;;;2.13;;
35444;SDS011;21562;49.476;6.086;2023-05-07T00:50:45;6.22;;;2.10;;
35444;SDS011;21562;49.476;6.086;2023-05-07T00:53:11;5.35;;;2.00;;
35444;SDS011;21562;49.476;6.086;2023-05-07T00:55:37;8.60;;;1.98;;
35444;SDS011;21562;49.476;6.086;2023-05-07T00:58:03;7.18;;;2.10;;
35444;SDS011;21562;49.476;6.086;2023-05-07T01:00:29;3.70;;;2.15;;
35444;SDS011;21562;49.476;6.086;2023-05-07T01:02:55;7.28;;;2.40;;
35444;SDS011;21562;49.476;6.086;2023-05-07T01:05:20;5.47;;;2.20;;
35444;SDS011;21562;49.476;6.086;2023-05-07T01:07:48;4.38;;;2.30;;
35444;SDS011;21562;49.476;6.086;2023-05-07T01:10:14;6.38;;;2.95;;
35444;SDS011;21562;49.476;6.086;2023-05-07T01:12:40;6.15;;;2.20;;
35444;SDS011;21562;49.476;6.086;2023-05-07T01:15:08;3.70;;;2.20;;
35444;SDS011;21562;49.476;6.086;2023-05-07T01:17:38;4.50;;;2.17;;
35444;SDS011;21562;49.476;6.086;2023-05-07T01:20:05;7.75;;;2.13;;
35444;SDS011;21562;49.476;6.086;2023-05-07T01:24:59;4.90;;;2.35;;
35444;SDS011;21562;49.476;6.086;2023-05-07T01:27:26;7.22;;;2.55;;
35444;SDS011;21562;49.476;6.086;2023-05-07T01:29:52;5.18;;;2.10;;
35444;SDS011;21562;49.476;6.086;2023-05-07T01:32:18;7.30;;;2.20;;
35444;SDS011;21562;49.476;6.086;2023-05-07T01:37:18;3.55;;;2.03;;
35444;SDS011;21562;49.476;6.086;2023-05-07T01:39:44;6.43;;;1.95;;
35444;SDS011;21562;49.476;6.086;2023-05-07T01:42:10;3.17;;;1.88;;
35444;SDS011;21562;49.476;6.086;2023-05-07T01:44:37;3.92;;;1.73;;
35444;SDS011;21562;49.476;6.086;2023-05-07T01:47:03;4.10;;;2.13;;
35444;SDS011;21562;49.476;6.086;2023-05-07T01:49:29;2.33;;;1.70;;
35444;SDS011;21562;49.476;6.086;2023-05-07T01:51:55;2.90;;;2.00;;
35444;SDS011;21562;49.476;6.086;2023-05-07T01:54:25;4.30;;;2.20;;
35444;SDS011;21562;49.476;6.086;2023-05-07T01:56:52;6.32;;;1.90;;
35444;SDS011;21562;49.476;6.086;2023-05-07T01:59:18;4.88;;;2.25;;
35444;SDS011;21562;49.476;6.086;2023-05-07T02:01:44;7.78;;;2.30;;
35444;SDS011;21562;49.476;6.086;2023-05-07T02:04:10;2.90;;;1.58;;
35444;SDS011;21562;49.476;6.086;2023-05-07T02:06:35;3.33;;;1.70;;
35444;SDS011;21562;49.476;6.086;2023-05-07T02:09:01;3.40;;;1.90;;
35444;SDS011;21562;49.476;6.086;2023-05-07T02:11:27;5.72;;;2.30;;
35444;SDS011;21562;49.476;6.086;2023-05-07T02:13:52;3.97;;;2.05;;
35444;SDS011;21562;49.476;6.086;2023-05-07T02:16:18;4.25;;;1.75;;
35444;SDS011;21562;49.476;6.086;2023-05-07T02:18:45;5.95;;;1.80;;
35444;SDS011;21562;49.476;6.086;2023-05-07T02:21:10;4.53;;;1.55;;
35444;SDS011;21562;49.476;6.086;2023-05-07T02:23:36;5.00;;;1.80;;
35444;SDS011;21562;49.476;6.086;2023-05-07T02:26:01;2.17;;;1.60;;
35444;SDS011;21562;49.476;6.086;2023-05-07T02:28:28;3.35;;;2.13;;
35444;SDS011;21562;49.476;6.086;2023-05-07T02:30:54;4.28;;;2.45;;
35444;SDS011;21562;49.476;6.086;2023-05-07T02:33:19;6.05;;;1.83;;
35444;SDS011;21562;49.476;6.086;2023-05-07T02:35:45;5.53;;;1.50;;
35444;SDS011;21562;49.476;6.086;2023-05-07T02:38:10;6.22;;;2.05;;
35444;SDS011;21562;49.476;6.086;2023-05-07T02:40:36;4.45;;;2.08;;
35444;SDS011;21562;49.476;6.086;2023-05-07T02:43:05;4.38;;;2.08;;
35444;SDS011;21562;49.476;6.086;2023-05-07T02:45:31;4.82;;;2.03;;
35444;SDS011;21562;49.476;6.086;2023-05-07T02:47:57;4.03;;;1.75;;
35444;SDS011;21562;49.476;6.086;2023-05-07T02:50:23;3.95;;;2.13;;
35444;SDS011;21562;49.476;6.086;2023-05-07T02:52:49;4.55;;;1.73;;
35444;SDS011;21562;49.476;6.086;2023-05-07T02:55:15;2.60;;;1.40;;
35444;SDS011;21562;49.476;6.086;2023-05-07T02:57:41;2.90;;;2.00;;
35444;SDS011;21562;49.476;6.086;2023-05-07T03:00:10;3.70;;;2.20;;
35444;SDS011;21562;49.476;6.086;2023-05-07T03:02:37;3.63;;;1.90;;
35444;SDS011;21562;49.476;6.086;2023-05-07T03:05:02;5.70;;;2.00;;
35444;SDS011;21562;49.476;6.086;2023-05-07T03:07:28;2.22;;;1.83;;
35444;SDS011;21562;49.476;6.086;2023-05-07T03:09:54;4.13;;;1.80;;
35444;SDS011;21562;49.476;6.086;2023-05-07T03:12:19;4.03;;;2.00;;
35444;SDS011;21562;49.476;6.086;2023-05-07T03:14:45;3.92;;;1.80;;
35444;SDS011;21562;49.476;6.086;2023-05-07T03:17:11;3.75;;;2.00;;
35444;SDS011;21562;49.476;6.086;2023-05-07T03:19:37;2.55;;;1.45;;
35444;SDS011;21562;49.476;6.086;2023-05-07T03:22:02;1.90;;;1.60;;
35444;SDS011;21562;49.476;6.086;2023-05-07T03:24:28;6.43;;;2.20;;
35444;SDS011;21562;49.476;6.086;2023-05-07T03:26:53;2.45;;;1.67;;
35444;SDS011;21562;49.476;6.086;2023-05-07T03:29:19;2.88;;;2.00;;
35444;SDS011;21562;49.476;6.086;2023-05-07T03:31:45;3.15;;;2.00;;
35444;SDS011;21562;49.476;6.086;2023-05-07T03:34:11;2.03;;;1.50;;
35444;SDS011;21562;49.476;6.086;2023-05-07T03:36:36;3.35;;;2.20;;
35444;SDS011;21562;49.476;6.086;2023-05-07T03:39:02;5.57;;;1.95;;
35444;SDS011;21562;49.476;6.086;2023-05-07T03:41:27;5.38;;;2.10;;
35444;SDS011;21562;49.476;6.086;2023-05-07T03:43:54;3.72;;;1.88;;
35444;SDS011;21562;49.476;6.086;2023-05-07T03:46:20;3.78;;;1.98;;
35444;SDS011;21562;49.476;6.086;2023-05-07T03:48:45;4.25;;;1.80;;
35444;SDS011;21562;49.476;6.086;2023-05-07T03:51:11;5.55;;;2.25;;
35444;SDS011;21562;49.476;6.086;2023-05-07T03:53:37;4.38;;;2.13;;
35444;SDS011;21562;49.476;6.086;2023-05-07T03:56:02;2.88;;;1.90;;
35444;SDS011;21562;49.476;6.086;2023-05-07T03:58:28;7.60;;;2.00;;
35444;SDS011;21562;49.476;6.086;2023-05-07T04:00:54;5.55;;;1.90;;
35444;SDS011;21562;49.476;6.086;2023-05-07T04:03:19;4.85;;;1.90;;
35444;SDS011;21562;49.476;6.086;2023-05-07T04:05:45;4.28;;;2.15;;
35444;SDS011;21562;49.476;6.086;2023-05-07T04:08:11;4.32;;;2.30;;
35444;SDS011;21562;49.476;6.086;2023-05-07T04:10:36;5.68;;;2.15;;
35444;SDS011;21562;49.476;6.086;2023-05-07T04:13:02;3.47;;;1.67;;
35444;SDS011;21562;49.476;6.086;2023-05-07T04:15:28;7.10;;;2.05;;
35444;SDS011;21562;49.476;6.086;2023-05-07T04:17:53;3.17;;;2.17;;
35444;SDS011;21562;49.476;6.086;2023-05-07T04:20:19;4.18;;;2.00;;
35444;SDS011;21562;49.476;6.086;2023-05-07T04:22:44;3.20;;;1.90;;
35444;SDS011;21562;49.476;6.086;2023-05-07T04:25:10;5.10;;;2.20;;
35444;SDS011;21562;49.476;6.086;2023-05-07T04:27:35;3.33;;;2.17;;
35444;SDS011;21562;49.476;6.086;2023-05-07T04:30:02;2.90;;;1.90;;
35444;SDS011;21562;49.476;6.086;2023-05-07T04:32:28;5.20;;;2.17;;
35444;SDS011;21562;49.476;6.086;2023-05-07T04:34:55;3.65;;;2.13;;
35444;SDS011;21562;49.476;6.086;2023-05-07T04:37:21;4.30;;;2.55;;
35444;SDS011;21562;49.476;6.086;2023-05-07T04:39:47;7.90;;;2.15;;
35444;SDS011;21562;49.476;6.086;2023-05-07T04:42:16;3.45;;;2.25;;
35444;SDS011;21562;49.476;6.086;2023-05-07T04:44:43;8.48;;;3.85;;
35444;SDS011;21562;49.476;6.086;2023-05-07T04:47:10;6.18;;;2.13;;
35444;SDS011;21562;49.476;6.086;2023-05-07T04:49:36;5.25;;;2.20;;
35444;SDS011;21562;49.476;6.086;2023-05-07T04:52:02;4.38;;;2.35;;
35444;SDS011;21562;49.476;6.086;2023-05-07T04:54:28;3.80;;;1.80;;
35444;SDS011;21562;49.476;6.086;2023-05-07T04:56:54;5.88;;;2.97;;
35444;SDS011;21562;49.476;6.086;2023-05-07T04:59:20;5.32;;;2.30;;
35444;SDS011;21562;49.476;6.086;2023-05-07T05:01:46;3.83;;;2.28;;
35444;SDS011;21562;49.476;6.086;2023-05-07T05:04:11;6.28;;;2.30;;
35444;SDS011;21562;49.476;6.086;2023-05-07T05:06:37;4.45;;;2.45;;
35444;SDS011;21562;49.476;6.086;2023-05-07T05:09:03;6.28;;;2.30;;
35444;SDS011;21562;49.476;6.086;2023-05-07T05:11:30;4.32;;;2.20;;
35444;SDS011;21562;49.476;6.086;2023-05-07T05:13:55;3.42;;;2.30;;
35444;SDS011;21562;49.476;6.086;2023-05-07T05:16:21;3.33;;;2.10;;
35444;SDS011;21562;49.476;6.086;2023-05-07T05:18:47;5.85;;;2.47;;
35444;SDS011;21562;49.476;6.086;2023-05-07T05:21:12;4.93;;;2.33;;
35444;SDS011;21562;49.476;6.086;2023-05-07T05:23:38;3.60;;;1.90;;
35444;SDS011;21562;49.476;6.086;2023-05-07T05:26:04;4.90;;;2.50;;
35444;SDS011;21562;49.476;6.086;2023-05-07T05:28:29;3.17;;;2.25;;
35444;SDS011;21562;49.476;6.086;2023-05-07T05:30:55;3.88;;;2.13;;
35444;SDS011;21562;49.476;6.086;2023-05-07T05:33:21;4.05;;;2.33;;
35444;SDS011;21562;49.476;6.086;2023-05-07T05:35:46;3.38;;;2.58;;
35444;SDS011;21562;49.476;6.086;2023-05-07T05:38:12;8.82;;;2.40;;
35444;SDS011;21562;49.476;6.086;2023-05-07T05:40:38;4.75;;;2.50;;
35444;SDS011;21562;49.476;6.086;2023-05-07T05:43:03;4.93;;;2.50;;
35444;SDS011;21562;49.476;6.086;2023-05-07T05:45:29;5.60;;;2.55;;
35444;SDS011;21562;49.476;6.086;2023-05-07T05:47:55;3.65;;;2.47;;
35444;SDS011;21562;49.476;6.086;2023-05-07T05:50:21;5.60;;;2.50;;
35444;SDS011;21562;49.476;6.086;2023-05-07T05:52:47;5.50;;;2.50;;
35444;SDS011;21562;49.476;6.086;2023-05-07T05:55:13;5.13;;;2.38;;
35444;SDS011;21562;49.476;6.086;2023-05-07T05:57:38;5.88;;;2.50;;
35444;SDS011;21562;49.476;6.086;2023-05-07T06:00:05;3.75;;;2.20;;
35444;SDS011;21562;49.476;6.086;2023-05-07T06:02:31;5.38;;;2.55;;
35444;SDS011;21562;49.476;6.086;2023-05-07T06:04:57;4.25;;;2.58;;
35444;SDS011;21562;49.476;6.086;2023-05-07T06:07:22;3.88;;;2.60;;
35444;SDS011;21562;49.476;6.086;2023-05-07T06:09:48;6.65;;;2.78;;
35444;SDS011;21562;49.476;6.086;2023-05-07T06:12:14;5.45;;;2.63;;
35444;SDS011;21562;49.476;6.086;2023-05-07T06:14:39;3.70;;;2.72;;
35444;SDS011;21562;49.476;6.086;2023-05-07T06:17:07;5.32;;;2.65;;
35444;SDS011;21562;49.476;6.086;2023-05-07T06:19:33;4.75;;;2.72;;
35444;SDS011;21562;49.476;6.086;2023-05-07T06:21:58;5.50;;;2.90;;
35444;SDS011;21562;49.476;6.086;2023-05-07T06:24:26;7.30;;;2.80;;
35444;SDS011;21562;49.476;6.086;2023-05-07T06:26:51;4.78;;;3.40;;
35444;SDS011;21562;49.476;6.086;2023-05-07T06:29:17;5.22;;;3.03;;
35444;SDS011;21562;49.476;6.086;2023-05-07T06:31:43;4.05;;;3.08;;
35444;SDS011;21562;49.476;6.086;2023-05-07T06:34:08;4.88;;;3.42;;
35444;SDS011;21562;49.476;6.086;2023-05-07T06:36:34;4.45;;;3.17;;
35444;SDS011;21562;49.476;6.086;2023-05-07T06:39:00;11.20;;;3.97;;
35444;SDS011;21562;49.476;6.086;2023-05-07T06:41:26;5.05;;;3.10;;
35444;SDS011;21562;49.476;6.086;2023-05-07T06:43:52;7.80;;;3.60;;
35444;SDS011;21562;49.476;6.086;2023-05-07T06:46:17;7.20;;;3.40;;
35444;SDS011;21562;49.476;6.086;2023-05-07T06:48:43;4.88;;;3.30;;
35444;SDS011;21562;49.476;6.086;2023-05-07T06:51:08;7.55;;;3.03;;
35444;SDS011;21562;49.476;6.086;2023-05-07T06:53:34;5.20;;;2.97;;
35444;SDS011;21562;49.476;6.086;2023-05-07T06:56:00;6.25;;;3.53;;
35444;SDS011;21562;49.476;6.086;2023-05-07T06:58:26;5.13;;;3.30;;
35444;SDS011;21562;49.476;6.086;2023-05-07T07:00:52;7.55;;;3.38;;
35444;SDS011;21562;49.476;6.086;2023-05-07T07:03:17;5.93;;;3.45;;
35444;SDS011;21562;49.476;6.086;2023-05-07T07:05:43;7.03;;;3.20;;
35444;SDS011;21562;49.476;6.086;2023-05-07T07:08:09;6.78;;;3.42;;
35444;SDS011;21562;49.476;6.086;2023-05-07T07:10:35;6.63;;;3.65;;
35444;SDS011;21562;49.476;6.086;2023-05-07T07:13:01;4.30;;;3.42;;
35444;SDS011;21562;49.476;6.086;2023-05-07T07:15:26;7.78;;;4.03;;
35444;SDS011;21562;49.476;6.086;2023-05-07T07:17:52;6.70;;;3.40;;
35444;SDS011;21562;49.476;6.086;2023-05-07T07:20:17;4.60;;;2.83;;
35444;SDS011;21562;49.476;6.086;2023-05-07T07:22:43;6.18;;;3.30;;
35444;SDS011;21562;49.476;6.086;2023-05-07T07:25:09;5.13;;;3.30;;
35444;SDS011;21562;49.476;6.086;2023-05-07T07:27:36;3.97;;;3.25;;
35444;SDS011;21562;49.476;6.086;2023-05-07T07:30:02;4.53;;;3.15;;
35444;SDS011;21562;49.476;6.086;2023-05-07T07:32:28;9.35;;;3.95;;
35444;SDS011;21562;49.476;6.086;2023-05-07T07:34:54;6.22;;;3.75;;
35444;SDS011;21562;49.476;6.086;2023-05-07T07:37:19;4.72;;;3.60;;
35444;SDS011;21562;49.476;6.086;2023-05-07T07:39:45;8.18;;;3.40;;
35444;SDS011;21562;49.476;6.086;2023-05-07T07:42:11;4.53;;;2.40;;
35444;SDS011;21562;49.476;6.086;2023-05-07T07:44:36;12.52;;;2.53;;
35444;SDS011;21562;49.476;6.086;2023-05-07T07:47:02;9.48;;;3.72;;
35444;SDS011;21562;49.476;6.086;2023-05-07T07:49:27;5.18;;;3.00;;
35444;SDS011;21562;49.476;6.086;2023-05-07T07:51:53;5.05;;;3.35;;
35444;SDS011;21562;49.476;6.086;2023-05-07T07:54:19;8.75;;;2.88;;
35444;SDS011;21562;49.476;6.086;2023-05-07T07:56:44;7.85;;;2.83;;
35444;SDS011;21562;49.476;6.086;2023-05-07T07:59:10;10.43;;;3.58;;
35444;SDS011;21562;49.476;6.086;2023-05-07T08:01:35;7.22;;;2.95;;
35444;SDS011;21562;49.476;6.086;2023-05-07T08:04:01;7.40;;;2.67;;
35444;SDS011;21562;49.476;6.086;2023-05-07T08:06:28;7.43;;;2.63;;
35444;SDS011;21562;49.476;6.086;2023-05-07T08:08:54;5.78;;;1.88;;
35444;SDS011;21562;49.476;6.086;2023-05-07T08:11:20;4.35;;;2.15;;
35444;SDS011;21562;49.476;6.086;2023-05-07T08:13:46;2.92;;;1.73;;
35444;SDS011;21562;49.476;6.086;2023-05-07T08:16:12;6.45;;;2.20;;
35444;SDS011;21562;49.476;6.086;2023-05-07T08:18:38;2.40;;;1.67;;
35444;SDS011;21562;49.476;6.086;2023-05-07T08:21:03;3.80;;;2.30;;
35444;SDS011;21562;49.476;6.086;2023-05-07T08:23:29;3.65;;;2.20;;
35444;SDS011;21562;49.476;6.086;2023-05-07T08:25:55;5.50;;;2.55;;
35444;SDS011;21562;49.476;6.086;2023-05-07T08:28:21;5.13;;;2.47;;
35444;SDS011;21562;49.476;6.086;2023-05-07T08:30:46;3.97;;;2.33;;
35444;SDS011;21562;49.476;6.086;2023-05-07T08:33:12;4.35;;;2.00;;
35444;SDS011;21562;49.476;6.086;2023-05-07T08:35:38;6.50;;;2.45;;
35444;SDS011;21562;49.476;6.086;2023-05-07T08:38:03;2.60;;;1.65;;
35444;SDS011;21562;49.476;6.086;2023-05-07T08:40:29;8.65;;;2.00;;
35444;SDS011;21562;49.476;6.086;2023-05-07T08:43:04;5.15;;;2.00;;
35444;SDS011;21562;49.476;6.086;2023-05-07T08:45:30;4.38;;;2.53;;
35444;SDS011;21562;49.476;6.086;2023-05-07T08:47:59;5.80;;;2.22;;
35444;SDS011;21562;49.476;6.086;2023-05-07T08:50:27;8.35;;;1.88;;
35444;SDS011;21562;49.476;6.086;2023-05-07T08:52:53;5.65;;;2.50;;
35444;SDS011;21562;49.476;6.086;2023-05-07T08:55:21;7.45;;;2.40;;
35444;SDS011;21562;49.476;6.086;2023-05-07T08:57:47;5.00;;;2.63;;
35444;SDS011;21562;49.476;6.086;2023-05-07T09:00:13;21.00;;;8.90;;
35444;SDS011;21562;49.476;6.086;2023-05-07T09:02:39;20.13;;;8.88;;
35444;SDS011;21562;49.476;6.086;2023-05-07T09:05:05;20.13;;;8.45;;
35444;SDS011;21562;49.476;6.086;2023-05-07T09:07:31;16.08;;;7.65;;
35444;SDS011;21562;49.476;6.086;2023-05-07T09:09:57;12.20;;;5.47;;
35444;SDS011;21562;49.476;6.086;2023-05-07T09:12:23;9.85;;;5.00;;
35444;SDS011;21562;49.476;6.086;2023-05-07T09:14:49;10.52;;;4.75;;
35444;SDS011;21562;49.476;6.086;2023-05-07T09:17:15;11.35;;;4.65;;
35444;SDS011;21562;49.476;6.086;2023-05-07T09:19:42;8.07;;;3.42;;
35444;SDS011;21562;49.476;6.086;2023-05-07T09:22:12;7.65;;;2.70;;
35444;SDS011;21562;49.476;6.086;2023-05-07T09:24:38;10.95;;;3.45;;
35444;SDS011;21562;49.476;6.086;2023-05-07T09:27:04;6.60;;;2.67;;
35444;SDS011;21562;49.476;6.086;2023-05-07T09:29:30;6.38;;;2.85;;
35444;SDS011;21562;49.476;6.086;2023-05-07T09:32:03;5.65;;;2.17;;
35444;SDS011;21562;49.476;6.086;2023-05-07T09:34:32;12.07;;;2.80;;
35444;SDS011;21562;49.476;6.086;2023-05-07T09:36:58;7.20;;;2.42;;
35444;SDS011;21562;49.476;6.086;2023-05-07T09:42:06;4.75;;;1.92;;
35444;SDS011;21562;49.476;6.086;2023-05-07T09:44:32;10.43;;;2.35;;
35444;SDS011;21562;49.476;6.086;2023-05-07T09:46:59;3.25;;;1.92;;
35444;SDS011;21562;49.476;6.086;2023-05-07T09:49:26;7.35;;;2.35;;
35444;SDS011;21562;49.476;6.086;2023-05-07T09:51:57;5.03;;;1.90;;
35444;SDS011;21562;49.476;6.086;2023-05-07T09:54:25;7.07;;;2.47;;
35444;SDS011;21562;49.476;6.086;2023-05-07T09:56:52;5.22;;;1.67;;
35444;SDS011;21562;49.476;6.086;2023-05-07T09:59:18;5.75;;;2.50;;
35444;SDS011;21562;49.476;6.086;2023-05-07T10:01:44;4.43;;;1.77;;
35444;SDS011;21562;49.476;6.086;2023-05-07T10:04:10;7.18;;;2.20;;
35444;SDS011;21562;49.476;6.086;2023-05-07T10:06:37;5.00;;;1.90;;
35444;SDS011;21562;49.476;6.086;2023-05-07T10:09:05;4.80;;;1.67;;
35444;SDS011;21562;49.476;6.086;2023-05-07T10:11:35;4.88;;;2.15;;
35444;SDS011;21562;49.476;6.086;2023-05-07T10:14:01;3.85;;;2.17;;
35444;SDS011;21562;49.476;6.086;2023-05-07T10:16:29;3.28;;;2.20;;
35444;SDS011;21562;49.476;6.086;2023-05-07T10:18:58;8.90;;;2.20;;
35444;SDS011;21562;49.476;6.086;2023-05-07T10:21:24;5.95;;;2.85;;
35444;SDS011;21562;49.476;6.086;2023-05-07T10:24:00;5.30;;;2.20;;
35444;SDS011;21562;49.476;6.086;2023-05-07T10:26:38;7.55;;;3.60;;
35444;SDS011;21562;49.476;6.086;2023-05-07T10:29:30;6.65;;;3.20;;
35444;SDS011;21562;49.476;6.086;2023-05-07T10:34:54;17.60;;;3.28;;
35444;SDS011;21562;49.476;6.086;2023-05-07T10:37:23;4.28;;;2.53;;
35444;SDS011;21562;49.476;6.086;2023-05-07T10:39:49;7.68;;;2.50;;
35444;SDS011;21562;49.476;6.086;2023-05-07T10:42:16;8.20;;;3.22;;
35444;SDS011;21562;49.476;6.086;2023-05-07T10:44:42;7.22;;;2.17;;
35444;SDS011;21562;49.476;6.086;2023-05-07T10:47:11;4.88;;;2.40;;
35444;SDS011;21562;49.476;6.086;2023-05-07T10:52:17;9.80;;;2.65;;
35444;SDS011;21562;49.476;6.086;2023-05-07T10:54:43;5.40;;;2.50;;
35444;SDS011;21562;49.476;6.086;2023-05-07T10:59:57;3.53;;;2.40;;
35444;SDS011;21562;49.476;6.086;2023-05-07T11:02:22;4.18;;;2.13;;
35444;SDS011;21562;49.476;6.086;2023-05-07T11:07:53;5.65;;;2.67;;
35444;SDS011;21562;49.476;6.086;2023-05-07T11:10:23;5.95;;;2.50;;
35444;SDS011;21562;49.476;6.086;2023-05-07T11:13:08;6.45;;;2.58;;
35444;SDS011;21562;49.476;6.086;2023-05-07T11:15:39;5.60;;;2.70;;
35444;SDS011;21562;49.476;6.086;2023-05-07T11:18:08;6.55;;;2.47;;
35444;SDS011;21562;49.476;6.086;2023-05-07T11:28:36;5.53;;;2.67;;
35444;SDS011;21562;49.476;6.086;2023-05-07T11:31:05;5.38;;;2.80;;
35444;SDS011;21562;49.476;6.086;2023-05-07T11:33:31;5.85;;;2.70;;
35444;SDS011;21562;49.476;6.086;2023-05-07T11:35:57;6.18;;;2.75;;
35444;SDS011;21562;49.476;6.086;2023-05-07T11:38:25;5.80;;;2.97;;
35444;SDS011;21562;49.476;6.086;2023-05-07T11:40:57;5.75;;;2.50;;
35444;SDS011;21562;49.476;6.086;2023-05-07T11:43:27;5.32;;;2.50;;
35444;SDS011;21562;49.476;6.086;2023-05-07T11:45:53;8.35;;;2.78;;
35444;SDS011;21562;49.476;6.086;2023-05-07T11:48:19;6.13;;;2.80;;
35444;SDS011;21562;49.476;6.086;2023-05-07T11:50:54;9.25;;;3.13;;
35444;SDS011;21562;49.476;6.086;2023-05-07T11:53:27;6.07;;;2.40;;
35444;SDS011;21562;49.476;6.086;2023-05-07T11:55:59;10.20;;;2.80;;
35444;SDS011;21562;49.476;6.086;2023-05-07T11:58:25;5.22;;;2.25;;
35444;SDS011;21562;49.476;6.086;2023-05-07T12:00:51;5.57;;;2.65;;
35444;SDS011;21562;49.476;6.086;2023-05-07T12:03:18;5.85;;;2.65;;
35444;SDS011;21562;49.476;6.086;2023-05-07T12:05:45;6.15;;;2.58;;
35444;SDS011;21562;49.476;6.086;2023-05-07T12:08:14;4.90;;;2.38;;
35444;SDS011;21562;49.476;6.086;2023-05-07T12:10:44;5.35;;;3.03;;
35444;SDS011;21562;49.476;6.086;2023-05-07T12:13:44;9.30;;;2.42;;
35444;SDS011;21562;49.476;6.086;2023-05-07T12:16:02;5.95;;;2.65;;
35444;SDS011;21562;49.476;6.086;2023-05-07T12:18:30;8.77;;;2.67;;
35444;SDS011;21562;49.476;6.086;2023-05-07T12:20:56;9.65;;;2.92;;
35444;SDS011;21562;49.476;6.086;2023-05-07T12:23:22;8.20;;;2.88;;
35444;SDS011;21562;49.476;6.086;2023-05-07T12:25:48;3.67;;;2.50;;
35444;SDS011;21562;49.476;6.086;2023-05-07T12:28:17;5.05;;;2.30;;
35444;SDS011;21562;49.476;6.086;2023-05-07T12:30:43;7.53;;;2.72;;
35444;SDS011;21562;49.476;6.086;2023-05-07T12:33:10;4.57;;;2.42;;
35444;SDS011;21562;49.476;6.086;2023-05-07T12:35:38;8.50;;;2.78;;
35444;SDS011;21562;49.476;6.086;2023-05-07T12:38:09;4.47;;;2.65;;
35444;SDS011;21562;49.476;6.086;2023-05-07T12:40:39;3.90;;;2.75;;
35444;SDS011;21562;49.476;6.086;2023-05-07T12:43:17;3.53;;;2.30;;
35444;SDS011;21562;49.476;6.086;2023-05-07T12:45:49;3.45;;;2.05;;
35444;SDS011;21562;49.476;6.086;2023-05-07T12:48:15;4.03;;;2.40;;
35444;SDS011;21562;49.476;6.086;2023-05-07T12:50:41;6.40;;;2.75;;
35444;SDS011;21562;49.476;6.086;2023-05-07T12:53:08;6.15;;;2.33;;
35444;SDS011;21562;49.476;6.086;2023-05-07T12:55:43;5.65;;;2.10;;
35444;SDS011;21562;49.476;6.086;2023-05-07T12:58:14;4.45;;;2.70;;
35444;SDS011;21562;49.476;6.086;2023-05-07T13:00:44;4.45;;;2.33;;
35444;SDS011;21562;49.476;6.086;2023-05-07T13:03:20;3.20;;;2.00;;
35444;SDS011;21562;49.476;6.086;2023-05-07T13:05:54;15.70;;;6.38;;
35444;SDS011;21562;49.476;6.086;2023-05-07T13:08:40;17.55;;;5.88;;
35444;SDS011;21562;49.476;6.086;2023-05-07T13:11:08;9.85;;;4.70;;
35444;SDS011;21562;49.476;6.086;2023-05-07T13:13:35;6.93;;;3.35;;
35444;SDS011;21562;49.476;6.086;2023-05-07T13:16:02;6.55;;;3.42;;
35444;SDS011;21562;49.476;6.086;2023-05-07T13:18:31;4.30;;;2.78;;
35444;SDS011;21562;49.476;6.086;2023-05-07T13:20:58;2.97;;;2.35;;
35444;SDS011;21562;49.476;6.086;2023-05-07T13:23:25;3.55;;;2.28;;
35444;SDS011;21562;49.476;6.086;2023-05-07T13:25:51;9.82;;;2.97;;
35444;SDS011;21562;49.476;6.086;2023-05-07T13:28:18;7.97;;;2.63;;
35444;SDS011;21562;49.476;6.086;2023-05-07T13:30:45;3.63;;;2.40;;
35444;SDS011;21562;49.476;6.086;2023-05-07T13:33:11;4.78;;;2.30;;
35444;SDS011;21562;49.476;6.086;2023-05-07T13:35:36;4.45;;;2.55;;
35444;SDS011;21562;49.476;6.086;2023-05-07T13:38:02;4.13;;;2.42;;
35444;SDS011;21562;49.476;6.086;2023-05-07T13:40:28;5.53;;;2.75;;
35444;SDS011;21562;49.476;6.086;2023-05-07T13:42:56;5.50;;;3.17;;
35444;SDS011;21562;49.476;6.086;2023-05-07T13:45:23;5.32;;;2.80;;
35444;SDS011;21562;49.476;6.086;2023-05-07T13:47:51;4.10;;;2.53;;
35444;SDS011;21562;49.476;6.086;2023-05-07T13:50:17;6.28;;;3.05;;
35444;SDS011;21562;49.476;6.086;2023-05-07T13:52:43;3.60;;;2.00;;
35444;SDS011;21562;49.476;6.086;2023-05-07T13:55:19;4.82;;;2.80;;
35444;SDS011;21562;49.476;6.086;2023-05-07T13:57:46;4.88;;;2.83;;
35444;SDS011;21562;49.476;6.086;2023-05-07T14:00:12;5.88;;;2.85;;
35444;SDS011;21562;49.476;6.086;2023-05-07T14:02:39;5.00;;;3.38;;
35444;SDS011;21562;49.476;6.086;2023-05-07T14:05:05;4.43;;;2.83;;
35444;SDS011;21562;49.476;6.086;2023-05-07T14:07:31;4.80;;;3.05;;
35444;SDS011;21562;49.476;6.086;2023-05-07T14:09:57;4.57;;;2.78;;
35444;SDS011;21562;49.476;6.086;2023-05-07T14:12:23;8.98;;;3.40;;
35444;SDS011;21562;49.476;6.086;2023-05-07T14:14:49;6.72;;;3.38;;
35444;SDS011;21562;49.476;6.086;2023-05-07T14:17:16;4.60;;;2.88;;
35444;SDS011;21562;49.476;6.086;2023-05-07T14:19:42;6.05;;;2.60;;
35444;SDS011;21562;49.476;6.086;2023-05-07T14:22:08;5.57;;;3.20;;
35444;SDS011;21562;49.476;6.086;2023-05-07T14:24:33;6.28;;;3.10;;
35444;SDS011;21562;49.476;6.086;2023-05-07T14:26:59;3.97;;;2.50;;
35444;SDS011;21562;49.476;6.086;2023-05-07T14:29:25;6.53;;;3.80;;
35444;SDS011;21562;49.476;6.086;2023-05-07T14:31:50;6.35;;;3.10;;
35444;SDS011;21562;49.476;6.086;2023-05-07T14:34:16;6.68;;;2.50;;
35444;SDS011;21562;49.476;6.086;2023-05-07T14:36:42;7.60;;;3.47;;
35444;SDS011;21562;49.476;6.086;2023-05-07T14:39:09;10.30;;;3.17;;
35444;SDS011;21562;49.476;6.086;2023-05-07T14:41:34;7.07;;;3.10;;
35444;SDS011;21562;49.476;6.086;2023-05-07T14:44:00;6.88;;;2.90;;
35444;SDS011;21562;49.476;6.086;2023-05-07T14:46:26;5.97;;;2.78;;
35444;SDS011;21562;49.476;6.086;2023-05-07T14:48:52;5.25;;;2.95;;
35444;SDS011;21562;49.476;6.086;2023-05-07T14:51:18;9.10;;;5.25;;
35444;SDS011;21562;49.476;6.086;2023-05-07T14:53:43;5.72;;;3.03;;
35444;SDS011;21562;49.476;6.086;2023-05-07T14:56:09;7.20;;;2.53;;
35444;SDS011;21562;49.476;6.086;2023-05-07T14:58:35;6.00;;;3.10;;
35444;SDS011;21562;49.476;6.086;2023-05-07T15:01:02;7.63;;;2.75;;
35444;SDS011;21562;49.476;6.086;2023-05-07T15:03:28;5.07;;;2.80;;
35444;SDS011;21562;49.476;6.086;2023-05-07T15:05:54;4.10;;;2.70;;
35444;SDS011;21562;49.476;6.086;2023-05-07T15:08:20;3.58;;;2.53;;
35444;SDS011;21562;49.476;6.086;2023-05-07T15:10:45;7.75;;;3.42;;
35444;SDS011;21562;49.476;6.086;2023-05-07T15:13:11;4.53;;;2.80;;